sensor_id;sensor_type;location;lat;lon;timestamp;temperature;humidity
12329;DHT22;6230;52.390;10.256;2023-03-01T00:01:17;5.10;53.50
12329;DHT22;6230;52.390;10.256;2023-03-01T00:03:43;5.10;53.50
12329;DHT22;6230;52.390;10.256;2023-03-01T00:06:09;5.10;53.60
12329;DHT22;6230;52.390;10.256;2023-03-01T00:08:35;5.10;53.60
12329;DHT22;6230;52.390;10.256;2023-03-01T00:11:07;5.00;53.70
12329;DHT22;6230;52.390;10.256;2023-03-01T00:13:34;5.00;53.80
12329;DHT22;6230;52.390;10.256;2023-03-01T00:16:03;4.90;53.80
12329;DHT22;6230;52.390;10.256;2023-03-01T00:18:28;4.90;53.90
12329;DHT22;6230;52.390;10.256;2023-03-01T00:20:55;4.90;53.90
12329;DHT22;6230;52.390;10.256;2023-03-01T00:23:22;4.90;54.00
12329;DHT22;6230;52.390;10.256;2023-03-01T00:25:48;4.80;53.90
12329;DHT22;6230;52.390;10.256;2023-03-01T00:28:13;4.80;54.00
12329;DHT22;6230;52.390;10.256;2023-03-01T00:30:39;4.80;54.00
12329;DHT22;6230;52.390;10.256;2023-03-01T00:33:05;4.80;54.00
12329;DHT22;6230;52.390;10.256;2023-03-01T00:35:32;4.80;54.00
12329;DHT22;6230;52.390;10.256;2023-03-01T00:37:57;4.80;54.00
12329;DHT22;6230;52.390;10.256;2023-03-01T00:40:24;4.80;54.00
12329;DHT22;6230;52.390;10.256;2023-03-01T00:42:50;4.90;54.10
12329;DHT22;6230;52.390;10.256;2023-03-01T00:45:16;4.90;54.10
12329;DHT22;6230;52.390;10.256;2023-03-01T00:47:41;4.80;54.00
12329;DHT22;6230;52.390;10.256;2023-03-01T00:50:08;4.80;54.60
12329;DHT22;6230;52.390;10.256;2023-03-01T00:52:34;4.80;54.10
12329;DHT22;6230;52.390;10.256;2023-03-01T00:54:59;4.80;54.20
12329;DHT22;6230;52.390;10.256;2023-03-01T00:57:25;4.80;54.20
12329;DHT22;6230;52.390;10.256;2023-03-01T00:59:51;4.70;54.20
12329;DHT22;6230;52.390;10.256;2023-03-01T01:02:18;4.60;54.20
12329;DHT22;6230;52.390;10.256;2023-03-01T01:04:44;4.60;54.40
12329;DHT22;6230;52.390;10.256;2023-03-01T01:07:09;4.60;54.40
12329;DHT22;6230;52.390;10.256;2023-03-01T01:09:35;4.60;54.40
12329;DHT22;6230;52.390;10.256;2023-03-01T01:12:02;4.60;54.40
12329;DHT22;6230;52.390;10.256;2023-03-01T01:14:27;4.60;54.50
12329;DHT22;6230;52.390;10.256;2023-03-01T01:16:53;4.60;54.50
12329;DHT22;6230;52.390;10.256;2023-03-01T01:19:19;4.50;54.50
12329;DHT22;6230;52.390;10.256;2023-03-01T01:21:45;4.50;55.10
12329;DHT22;6230;52.390;10.256;2023-03-01T01:24:12;4.50;54.50
12329;DHT22;6230;52.390;10.256;2023-03-01T01:26:38;4.50;54.50
12329;DHT22;6230;52.390;10.256;2023-03-01T01:29:04;4.50;54.60
12329;DHT22;6230;52.390;10.256;2023-03-01T01:31:30;4.50;54.60
12329;DHT22;6230;52.390;10.256;2023-03-01T01:33:57;4.50;54.60
12329;DHT22;6230;52.390;10.256;2023-03-01T01:36:23;4.40;54.60
12329;DHT22;6230;52.390;10.256;2023-03-01T01:38:49;4.40;54.60
12329;DHT22;6230;52.390;10.256;2023-03-01T01:41:15;4.40;54.60
12329;DHT22;6230;52.390;10.256;2023-03-01T01:43:43;4.40;54.70
12329;DHT22;6230;52.390;10.256;2023-03-01T01:49:07;4.40;54.80
12329;DHT22;6230;52.390;10.256;2023-03-01T01:51:37;4.40;54.80
12329;DHT22;6230;52.390;10.256;2023-03-01T01:54:09;4.40;54.80
12329;DHT22;6230;52.390;10.256;2023-03-01T01:56:38;4.30;54.80
12329;DHT22;6230;52.390;10.256;2023-03-01T01:59:05;4.30;54.80
12329;DHT22;6230;52.390;10.256;2023-03-01T02:01:31;4.30;54.80
12329;DHT22;6230;52.390;10.256;2023-03-01T02:03:57;4.30;54.80
12329;DHT22;6230;52.390;10.256;2023-03-01T02:06:34;4.30;54.90
12329;DHT22;6230;52.390;10.256;2023-03-01T02:09:12;4.20;54.90
12329;DHT22;6230;52.390;10.256;2023-03-01T02:11:38;4.20;54.90
12329;DHT22;6230;52.390;10.256;2023-03-01T02:14:05;4.20;54.90
12329;DHT22;6230;52.390;10.256;2023-03-01T02:16:31;4.20;54.90
12329;DHT22;6230;52.390;10.256;2023-03-01T02:18:58;4.20;54.90
12329;DHT22;6230;52.390;10.256;2023-03-01T02:21:59;4.20;54.90
12329;DHT22;6230;52.390;10.256;2023-03-01T02:27:02;4.00;55.00
12329;DHT22;6230;52.390;10.256;2023-03-01T02:29:28;4.00;55.00
12329;DHT22;6230;52.390;10.256;2023-03-01T02:31:56;4.00;55.10
12329;DHT22;6230;52.390;10.256;2023-03-01T02:34:24;3.90;55.20
12329;DHT22;6230;52.390;10.256;2023-03-01T02:37:08;3.90;55.20
12329;DHT22;6230;52.390;10.256;2023-03-01T02:39:40;3.80;55.30
12329;DHT22;6230;52.390;10.256;2023-03-01T02:42:11;3.80;55.40
12329;DHT22;6230;52.390;10.256;2023-03-01T02:44:37;3.70;55.50
12329;DHT22;6230;52.390;10.256;2023-03-01T02:47:03;3.70;55.60
12329;DHT22;6230;52.390;10.256;2023-03-01T02:49:35;3.70;55.70
12329;DHT22;6230;52.390;10.256;2023-03-01T02:52:12;3.70;55.70
12329;DHT22;6230;52.390;10.256;2023-03-01T02:54:50;3.70;55.70
12329;DHT22;6230;52.390;10.256;2023-03-01T02:57:18;3.80;56.40
12329;DHT22;6230;52.390;10.256;2023-03-01T02:59:44;3.80;55.70
12329;DHT22;6230;52.390;10.256;2023-03-01T03:02:39;3.80;55.70
12329;DHT22;6230;52.390;10.256;2023-03-01T03:05:11;3.80;55.80
12329;DHT22;6230;52.390;10.256;2023-03-01T03:07:40;3.80;55.70
12329;DHT22;6230;52.390;10.256;2023-03-01T03:10:11;3.80;55.70
12329;DHT22;6230;52.390;10.256;2023-03-01T03:12:38;3.80;55.70
12329;DHT22;6230;52.390;10.256;2023-03-01T03:15:05;3.80;55.70
12329;DHT22;6230;52.390;10.256;2023-03-01T03:17:37;3.70;55.70
12329;DHT22;6230;52.390;10.256;2023-03-01T03:20:05;3.70;55.70
12329;DHT22;6230;52.390;10.256;2023-03-01T03:22:31;3.70;55.80
12329;DHT22;6230;52.390;10.256;2023-03-01T03:24:59;3.70;55.80
12329;DHT22;6230;52.390;10.256;2023-03-01T03:27:25;3.70;55.90
12329;DHT22;6230;52.390;10.256;2023-03-01T03:29:50;3.70;55.90
12329;DHT22;6230;52.390;10.256;2023-03-01T03:32:16;3.70;55.90
12329;DHT22;6230;52.390;10.256;2023-03-01T03:34:41;3.60;55.90
12329;DHT22;6230;52.390;10.256;2023-03-01T03:37:07;3.60;55.90
12329;DHT22;6230;52.390;10.256;2023-03-01T03:39:52;3.60;55.90
12329;DHT22;6230;52.390;10.256;2023-03-01T03:42:20;3.60;55.80
12329;DHT22;6230;52.390;10.256;2023-03-01T03:44:47;3.60;55.90
12329;DHT22;6230;52.390;10.256;2023-03-01T03:47:12;3.60;55.90
12329;DHT22;6230;52.390;10.256;2023-03-01T03:49:38;3.60;55.90
12329;DHT22;6230;52.390;10.256;2023-03-01T03:52:03;3.60;55.90
12329;DHT22;6230;52.390;10.256;2023-03-01T03:54:29;3.60;55.90
12329;DHT22;6230;52.390;10.256;2023-03-01T03:56:54;3.60;56.00
12329;DHT22;6230;52.390;10.256;2023-03-01T03:59:20;3.60;56.00
12329;DHT22;6230;52.390;10.256;2023-03-01T04:01:45;3.50;56.00
12329;DHT22;6230;52.390;10.256;2023-03-01T04:04:11;3.50;56.00
12329;DHT22;6230;52.390;10.256;2023-03-01T04:06:36;3.50;56.00
12329;DHT22;6230;52.390;10.256;2023-03-01T04:09:02;3.50;56.00
12329;DHT22;6230;52.390;10.256;2023-03-01T04:11:28;3.50;56.00
12329;DHT22;6230;52.390;10.256;2023-03-01T04:13:56;3.50;56.10
12329;DHT22;6230;52.390;10.256;2023-03-01T04:16:22;3.50;56.10
12329;DHT22;6230;52.390;10.256;2023-03-01T04:18:48;3.40;56.00
12329;DHT22;6230;52.390;10.256;2023-03-01T04:21:14;3.40;56.10
12329;DHT22;6230;52.390;10.256;2023-03-01T04:23:40;3.40;56.10
12329;DHT22;6230;52.390;10.256;2023-03-01T04:26:06;3.40;56.10
12329;DHT22;6230;52.390;10.256;2023-03-01T04:28:40;3.40;56.10
12329;DHT22;6230;52.390;10.256;2023-03-01T04:31:10;3.30;56.10
12329;DHT22;6230;52.390;10.256;2023-03-01T04:33:49;3.30;56.10
12329;DHT22;6230;52.390;10.256;2023-03-01T04:36:17;3.30;56.20
12329;DHT22;6230;52.390;10.256;2023-03-01T04:38:43;3.30;56.20
12329;DHT22;6230;52.390;10.256;2023-03-01T04:41:13;3.30;56.20
12329;DHT22;6230;52.390;10.256;2023-03-01T04:43:39;3.30;56.20
12329;DHT22;6230;52.390;10.256;2023-03-01T04:46:08;3.20;56.20
12329;DHT22;6230;52.390;10.256;2023-03-01T04:48:36;3.20;56.20
12329;DHT22;6230;52.390;10.256;2023-03-01T04:51:02;3.20;56.30
12329;DHT22;6230;52.390;10.256;2023-03-01T04:53:28;3.20;56.30
12329;DHT22;6230;52.390;10.256;2023-03-01T04:55:55;3.20;56.30
12329;DHT22;6230;52.390;10.256;2023-03-01T04:58:22;3.20;56.40
12329;DHT22;6230;52.390;10.256;2023-03-01T05:00:48;3.10;56.30
12329;DHT22;6230;52.390;10.256;2023-03-01T05:03:13;3.10;56.30
12329;DHT22;6230;52.390;10.256;2023-03-01T05:05:44;3.10;56.30
12329;DHT22;6230;52.390;10.256;2023-03-01T05:08:10;3.10;56.30
12329;DHT22;6230;52.390;10.256;2023-03-01T05:10:44;3.00;56.30
12329;DHT22;6230;52.390;10.256;2023-03-01T05:13:11;3.00;56.30
12329;DHT22;6230;52.390;10.256;2023-03-01T05:15:38;3.00;56.30
12329;DHT22;6230;52.390;10.256;2023-03-01T05:18:05;3.00;56.40
12329;DHT22;6230;52.390;10.256;2023-03-01T05:20:37;3.00;56.40
12329;DHT22;6230;52.390;10.256;2023-03-01T05:23:03;2.90;56.40
12329;DHT22;6230;52.390;10.256;2023-03-01T05:25:31;2.90;56.40
12329;DHT22;6230;52.390;10.256;2023-03-01T05:27:59;2.90;56.50
12329;DHT22;6230;52.390;10.256;2023-03-01T05:30:24;2.90;56.50
12329;DHT22;6230;52.390;10.256;2023-03-01T05:32:50;2.90;56.50
12329;DHT22;6230;52.390;10.256;2023-03-01T05:35:21;2.90;56.60
12329;DHT22;6230;52.390;10.256;2023-03-01T05:37:48;2.80;56.50
12329;DHT22;6230;52.390;10.256;2023-03-01T05:40:17;2.80;56.50
12329;DHT22;6230;52.390;10.256;2023-03-01T05:42:45;2.80;56.60
12329;DHT22;6230;52.390;10.256;2023-03-01T05:45:12;2.80;56.60
12329;DHT22;6230;52.390;10.256;2023-03-01T05:47:39;2.80;56.60
12329;DHT22;6230;52.390;10.256;2023-03-01T05:50:32;2.80;56.70
12329;DHT22;6230;52.390;10.256;2023-03-01T05:53:04;2.80;56.60
12329;DHT22;6230;52.390;10.256;2023-03-01T05:55:32;2.80;56.60
12329;DHT22;6230;52.390;10.256;2023-03-01T05:57:59;2.80;56.60
12329;DHT22;6230;52.390;10.256;2023-03-01T06:00:25;2.80;56.70
12329;DHT22;6230;52.390;10.256;2023-03-01T06:02:51;2.80;56.70
12329;DHT22;6230;52.390;10.256;2023-03-01T06:05:17;2.80;56.80
12329;DHT22;6230;52.390;10.256;2023-03-01T06:07:43;2.70;56.70
12329;DHT22;6230;52.390;10.256;2023-03-01T06:10:10;2.70;56.70
12329;DHT22;6230;52.390;10.256;2023-03-01T06:12:38;2.70;56.80
12329;DHT22;6230;52.390;10.256;2023-03-01T06:15:05;2.70;56.80
12329;DHT22;6230;52.390;10.256;2023-03-01T06:17:34;2.70;56.90
12329;DHT22;6230;52.390;10.256;2023-03-01T06:20:04;2.70;56.90
12329;DHT22;6230;52.390;10.256;2023-03-01T06:22:30;2.70;56.90
12329;DHT22;6230;52.390;10.256;2023-03-01T06:24:55;2.70;56.90
12329;DHT22;6230;52.390;10.256;2023-03-01T06:27:21;2.70;56.90
12329;DHT22;6230;52.390;10.256;2023-03-01T06:29:46;2.70;57.00
12329;DHT22;6230;52.390;10.256;2023-03-01T06:32:12;2.70;57.10
12329;DHT22;6230;52.390;10.256;2023-03-01T06:34:37;2.70;57.10
12329;DHT22;6230;52.390;10.256;2023-03-01T06:37:03;2.70;57.10
12329;DHT22;6230;52.390;10.256;2023-03-01T06:39:31;2.80;57.10
12329;DHT22;6230;52.390;10.256;2023-03-01T06:41:56;2.80;57.10
12329;DHT22;6230;52.390;10.256;2023-03-01T06:44:22;2.80;57.10
12329;DHT22;6230;52.390;10.256;2023-03-01T06:46:47;2.80;57.10
12329;DHT22;6230;52.390;10.256;2023-03-01T06:49:13;2.80;57.10
12329;DHT22;6230;52.390;10.256;2023-03-01T06:51:38;2.80;57.20
12329;DHT22;6230;52.390;10.256;2023-03-01T06:54:04;2.80;57.20
12329;DHT22;6230;52.390;10.256;2023-03-01T06:56:31;2.70;57.30
12329;DHT22;6230;52.390;10.256;2023-03-01T06:58:57;2.70;57.40
12329;DHT22;6230;52.390;10.256;2023-03-01T07:01:22;2.80;57.50
12329;DHT22;6230;52.390;10.256;2023-03-01T07:03:48;2.80;57.40
12329;DHT22;6230;52.390;10.256;2023-03-01T07:06:13;2.80;57.50
12329;DHT22;6230;52.390;10.256;2023-03-01T07:08:39;2.80;57.50
12329;DHT22;6230;52.390;10.256;2023-03-01T07:11:04;2.80;57.50
12329;DHT22;6230;52.390;10.256;2023-03-01T07:13:31;2.80;57.70
12329;DHT22;6230;52.390;10.256;2023-03-01T07:15:57;2.80;57.70
12329;DHT22;6230;52.390;10.256;2023-03-01T07:18:23;2.80;57.80
12329;DHT22;6230;52.390;10.256;2023-03-01T07:20:49;2.90;57.90
12329;DHT22;6230;52.390;10.256;2023-03-01T07:23:14;2.90;57.90
12329;DHT22;6230;52.390;10.256;2023-03-01T07:25:40;2.90;58.00
12329;DHT22;6230;52.390;10.256;2023-03-01T07:28:06;2.90;58.00
12329;DHT22;6230;52.390;10.256;2023-03-01T07:30:31;3.00;58.10
12329;DHT22;6230;52.390;10.256;2023-03-01T07:32:58;3.00;58.10
12329;DHT22;6230;52.390;10.256;2023-03-01T07:35:25;3.00;58.20
12329;DHT22;6230;52.390;10.256;2023-03-01T07:37:51;3.00;58.20
12329;DHT22;6230;52.390;10.256;2023-03-01T07:40:17;3.10;58.30
12329;DHT22;6230;52.390;10.256;2023-03-01T07:42:42;3.10;58.30
12329;DHT22;6230;52.390;10.256;2023-03-01T07:45:08;3.10;58.50
12329;DHT22;6230;52.390;10.256;2023-03-01T07:47:34;3.10;58.50
12329;DHT22;6230;52.390;10.256;2023-03-01T07:49:59;3.10;58.60
12329;DHT22;6230;52.390;10.256;2023-03-01T07:52:26;3.10;58.70
12329;DHT22;6230;52.390;10.256;2023-03-01T07:54:52;3.10;58.80
12329;DHT22;6230;52.390;10.256;2023-03-01T07:57:17;3.20;58.90
12329;DHT22;6230;52.390;10.256;2023-03-01T07:59:43;3.20;59.00
12329;DHT22;6230;52.390;10.256;2023-03-01T08:02:10;3.30;59.00
12329;DHT22;6230;52.390;10.256;2023-03-01T08:04:35;3.30;59.00
12329;DHT22;6230;52.390;10.256;2023-03-01T08:07:04;3.40;59.10
12329;DHT22;6230;52.390;10.256;2023-03-01T08:09:29;3.40;59.10
12329;DHT22;6230;52.390;10.256;2023-03-01T08:11:56;3.40;59.10
12329;DHT22;6230;52.390;10.256;2023-03-01T08:14:24;3.50;59.10
12329;DHT22;6230;52.390;10.256;2023-03-01T08:16:50;3.50;59.10
12329;DHT22;6230;52.390;10.256;2023-03-01T08:19:15;3.60;59.10
12329;DHT22;6230;52.390;10.256;2023-03-01T08:21:41;3.70;59.10
12329;DHT22;6230;52.390;10.256;2023-03-01T08:24:07;3.70;59.10
12329;DHT22;6230;52.390;10.256;2023-03-01T08:26:33;3.80;59.10
12329;DHT22;6230;52.390;10.256;2023-03-01T08:28:59;3.90;59.10
12329;DHT22;6230;52.390;10.256;2023-03-01T08:31:28;3.90;59.10
12329;DHT22;6230;52.390;10.256;2023-03-01T08:33:57;4.00;59.20
12329;DHT22;6230;52.390;10.256;2023-03-01T08:36:25;4.00;59.10
12329;DHT22;6230;52.390;10.256;2023-03-01T08:38:51;4.10;59.20
12329;DHT22;6230;52.390;10.256;2023-03-01T08:41:17;4.20;59.10
12329;DHT22;6230;52.390;10.256;2023-03-01T08:43:43;4.20;59.10
12329;DHT22;6230;52.390;10.256;2023-03-01T08:46:10;4.30;59.10
12329;DHT22;6230;52.390;10.256;2023-03-01T08:48:35;4.30;59.00
12329;DHT22;6230;52.390;10.256;2023-03-01T08:51:12;4.40;59.10
12329;DHT22;6230;52.390;10.256;2023-03-01T08:53:39;4.40;59.10
12329;DHT22;6230;52.390;10.256;2023-03-01T08:56:05;4.50;59.00
12329;DHT22;6230;52.390;10.256;2023-03-01T08:58:31;4.60;59.10
12329;DHT22;6230;52.390;10.256;2023-03-01T09:00:57;4.60;59.10
12329;DHT22;6230;52.390;10.256;2023-03-01T09:03:24;4.70;59.10
12329;DHT22;6230;52.390;10.256;2023-03-01T09:05:50;4.80;59.00
12329;DHT22;6230;52.390;10.256;2023-03-01T09:08:16;4.80;59.00
12329;DHT22;6230;52.390;10.256;2023-03-01T09:10:42;4.90;59.00
12329;DHT22;6230;52.390;10.256;2023-03-01T09:13:08;5.00;59.00
12329;DHT22;6230;52.390;10.256;2023-03-01T09:15:33;5.10;59.10
12329;DHT22;6230;52.390;10.256;2023-03-01T09:17:59;5.20;59.00
12329;DHT22;6230;52.390;10.256;2023-03-01T09:20:25;5.20;59.00
12329;DHT22;6230;52.390;10.256;2023-03-01T09:22:51;5.30;59.00
12329;DHT22;6230;52.390;10.256;2023-03-01T09:25:16;5.40;59.60
12329;DHT22;6230;52.390;10.256;2023-03-01T09:27:42;5.50;59.00
12329;DHT22;6230;52.390;10.256;2023-03-01T09:30:08;5.60;59.00
12329;DHT22;6230;52.390;10.256;2023-03-01T09:32:33;5.70;58.80
12329;DHT22;6230;52.390;10.256;2023-03-01T09:34:59;5.70;58.80
12329;DHT22;6230;52.390;10.256;2023-03-01T09:37:32;5.80;58.70
12329;DHT22;6230;52.390;10.256;2023-03-01T09:39:59;5.80;58.60
12329;DHT22;6230;52.390;10.256;2023-03-01T09:42:25;5.90;58.50
12329;DHT22;6230;52.390;10.256;2023-03-01T09:45:24;6.00;58.60
12329;DHT22;6230;52.390;10.256;2023-03-01T09:47:45;6.10;58.40
12329;DHT22;6230;52.390;10.256;2023-03-01T09:50:15;6.20;58.40
12329;DHT22;6230;52.390;10.256;2023-03-01T09:53:02;6.30;58.40
12329;DHT22;6230;52.390;10.256;2023-03-01T09:55:38;6.40;58.50
12329;DHT22;6230;52.390;10.256;2023-03-01T09:58:31;6.60;58.50
12329;DHT22;6230;52.390;10.256;2023-03-01T10:01:20;6.90;58.30
12329;DHT22;6230;52.390;10.256;2023-03-01T10:04:24;7.10;58.30
12329;DHT22;6230;52.390;10.256;2023-03-01T10:09:21;7.70;58.00
12329;DHT22;6230;52.390;10.256;2023-03-01T10:11:51;7.90;57.80
12329;DHT22;6230;52.390;10.256;2023-03-01T10:14:58;8.10;57.50
12329;DHT22;6230;52.390;10.256;2023-03-01T10:20:32;8.60;56.90
12329;DHT22;6230;52.390;10.256;2023-03-01T10:23:01;8.80;56.50
12329;DHT22;6230;52.390;10.256;2023-03-01T10:31:24;9.50;55.60
12329;DHT22;6230;52.390;10.256;2023-03-01T10:33:53;9.80;55.70
12329;DHT22;6230;52.390;10.256;2023-03-01T10:36:21;10.00;55.60
12329;DHT22;6230;52.390;10.256;2023-03-01T10:38:55;10.20;55.30
12329;DHT22;6230;52.390;10.256;2023-03-01T10:41:23;10.40;54.50
12329;DHT22;6230;52.390;10.256;2023-03-01T10:43:57;10.60;54.30
12329;DHT22;6230;52.390;10.256;2023-03-01T10:46:30;10.80;53.90
12329;DHT22;6230;52.390;10.256;2023-03-01T10:49:18;10.90;53.50
12329;DHT22;6230;52.390;10.256;2023-03-01T10:51:46;11.10;53.10
12329;DHT22;6230;52.390;10.256;2023-03-01T10:54:27;11.20;53.20
12329;DHT22;6230;52.390;10.256;2023-03-01T10:56:56;11.40;52.60
12329;DHT22;6230;52.390;10.256;2023-03-01T10:59:31;11.50;52.60
12329;DHT22;6230;52.390;10.256;2023-03-01T11:04:36;12.00;51.60
12329;DHT22;6230;52.390;10.256;2023-03-01T11:07:02;12.10;51.30
12329;DHT22;6230;52.390;10.256;2023-03-01T11:09:31;12.20;50.80
12329;DHT22;6230;52.390;10.256;2023-03-01T11:12:05;12.30;50.10
12329;DHT22;6230;52.390;10.256;2023-03-01T11:14:36;12.40;50.10
12329;DHT22;6230;52.390;10.256;2023-03-01T11:17:29;12.60;49.80
12329;DHT22;6230;52.390;10.256;2023-03-01T11:22:54;12.90;49.20
12329;DHT22;6230;52.390;10.256;2023-03-01T11:25:27;13.00;48.90
12329;DHT22;6230;52.390;10.256;2023-03-01T11:27:54;13.10;48.90
12329;DHT22;6230;52.390;10.256;2023-03-01T11:30:33;13.20;48.80
12329;DHT22;6230;52.390;10.256;2023-03-01T11:33:13;13.30;48.00
12329;DHT22;6230;52.390;10.256;2023-03-01T11:35:49;13.20;48.00
12329;DHT22;6230;52.390;10.256;2023-03-01T11:38:25;13.30;48.10
12329;DHT22;6230;52.390;10.256;2023-03-01T11:40:55;13.40;47.90
12329;DHT22;6230;52.390;10.256;2023-03-01T11:43:53;13.50;47.80
12329;DHT22;6230;52.390;10.256;2023-03-01T11:54:48;14.10;46.20
12329;DHT22;6230;52.390;10.256;2023-03-01T12:08:20;14.60;43.90
12329;DHT22;6230;52.390;10.256;2023-03-01T12:11:46;14.70;44.30
12329;DHT22;6230;52.390;10.256;2023-03-01T12:13:59;14.60;41.20
12329;DHT22;6230;52.390;10.256;2023-03-01T12:16:59;14.30;42.10
12329;DHT22;6230;52.390;10.256;2023-03-01T12:19:38;14.30;43.30
12329;DHT22;6230;52.390;10.256;2023-03-01T12:22:32;14.70;43.60
12329;DHT22;6230;52.390;10.256;2023-03-01T12:25:13;15.00;42.40
12329;DHT22;6230;52.390;10.256;2023-03-01T12:33:45;15.20;42.20
12329;DHT22;6230;52.390;10.256;2023-03-01T12:41:43;15.70;42.50
12329;DHT22;6230;52.390;10.256;2023-03-01T12:50:24;16.50;41.10
12329;DHT22;6230;52.390;10.256;2023-03-01T12:52:56;16.60;40.50
12329;DHT22;6230;52.390;10.256;2023-03-01T12:55:36;16.50;40.20
12329;DHT22;6230;52.390;10.256;2023-03-01T13:01:15;16.60;40.00
12329;DHT22;6230;52.390;10.256;2023-03-01T13:04:18;16.70;39.00
12329;DHT22;6230;52.390;10.256;2023-03-01T13:09:41;17.00;39.30
12329;DHT22;6230;52.390;10.256;2023-03-01T13:12:44;17.10;39.10
12329;DHT22;6230;52.390;10.256;2023-03-01T13:17:49;17.00;37.00
12329;DHT22;6230;52.390;10.256;2023-03-01T13:20:17;16.90;38.00
12329;DHT22;6230;52.390;10.256;2023-03-01T13:22:46;17.00;37.90
12329;DHT22;6230;52.390;10.256;2023-03-01T13:25:18;17.20;37.70
12329;DHT22;6230;52.390;10.256;2023-03-01T13:27:45;17.20;37.30
12329;DHT22;6230;52.390;10.256;2023-03-01T13:30:39;17.30;37.50
12329;DHT22;6230;52.390;10.256;2023-03-01T13:35:59;17.50;36.70
12329;DHT22;6230;52.390;10.256;2023-03-01T13:38:56;17.60;37.30
12329;DHT22;6230;52.390;10.256;2023-03-01T13:41:56;17.80;36.20
12329;DHT22;6230;52.390;10.256;2023-03-01T13:53:02;18.00;36.10
12329;DHT22;6230;52.390;10.256;2023-03-01T13:55:24;18.20;35.40
12329;DHT22;6230;52.390;10.256;2023-03-01T13:57:54;18.30;36.00
12329;DHT22;6230;52.390;10.256;2023-03-01T14:03:03;18.50;35.30
12329;DHT22;6230;52.390;10.256;2023-03-01T14:05:31;18.60;34.50
12329;DHT22;6230;52.390;10.256;2023-03-01T14:07:56;18.60;34.60
12329;DHT22;6230;52.390;10.256;2023-03-01T14:10:27;18.60;34.60
12329;DHT22;6230;52.390;10.256;2023-03-01T14:13:45;18.80;34.40
12329;DHT22;6230;52.390;10.256;2023-03-01T14:16:16;18.70;32.80
12329;DHT22;6230;52.390;10.256;2023-03-01T14:18:51;18.60;34.00
12329;DHT22;6230;52.390;10.256;2023-03-01T14:21:22;18.40;34.00
12329;DHT22;6230;52.390;10.256;2023-03-01T14:23:48;18.30;34.40
12329;DHT22;6230;52.390;10.256;2023-03-01T14:26:20;18.40;34.20
12329;DHT22;6230;52.390;10.256;2023-03-01T14:28:47;18.40;34.00
12329;DHT22;6230;52.390;10.256;2023-03-01T14:31:36;18.30;34.20
12329;DHT22;6230;52.390;10.256;2023-03-01T14:34:02;18.00;33.80
12329;DHT22;6230;52.390;10.256;2023-03-01T14:36:30;17.50;34.80
12329;DHT22;6230;52.390;10.256;2023-03-01T14:38:56;17.10;34.80
12329;DHT22;6230;52.390;10.256;2023-03-01T14:41:27;16.60;32.90
12329;DHT22;6230;52.390;10.256;2023-03-01T14:44:06;16.10;34.00
12329;DHT22;6230;52.390;10.256;2023-03-01T14:46:42;15.70;34.60
12329;DHT22;6230;52.390;10.256;2023-03-01T14:49:24;15.30;35.60
12329;DHT22;6230;52.390;10.256;2023-03-01T14:57:14;14.60;35.70
12329;DHT22;6230;52.390;10.256;2023-03-01T14:59:42;14.30;35.20
12329;DHT22;6230;52.390;10.256;2023-03-01T15:02:15;14.10;35.70
12329;DHT22;6230;52.390;10.256;2023-03-01T15:04:50;14.00;35.80
12329;DHT22;6230;52.390;10.256;2023-03-01T15:07:17;13.90;35.80
12329;DHT22;6230;52.390;10.256;2023-03-01T15:09:43;13.70;36.10
12329;DHT22;6230;52.390;10.256;2023-03-01T15:14:54;13.50;36.30
12329;DHT22;6230;52.390;10.256;2023-03-01T15:17:34;13.40;36.60
12329;DHT22;6230;52.390;10.256;2023-03-01T15:20:03;13.30;36.70
12329;DHT22;6230;52.390;10.256;2023-03-01T15:22:30;13.30;37.00
12329;DHT22;6230;52.390;10.256;2023-03-01T15:24:55;13.30;37.10
12329;DHT22;6230;52.390;10.256;2023-03-01T15:27:25;13.20;37.10
12329;DHT22;6230;52.390;10.256;2023-03-01T15:29:57;13.20;37.10
12329;DHT22;6230;52.390;10.256;2023-03-01T15:32:34;13.10;37.10
12329;DHT22;6230;52.390;10.256;2023-03-01T15:35:01;13.10;37.10
12329;DHT22;6230;52.390;10.256;2023-03-01T15:37:49;13.00;37.30
12329;DHT22;6230;52.390;10.256;2023-03-01T15:40:23;13.00;37.40
12329;DHT22;6230;52.390;10.256;2023-03-01T15:42:50;13.00;37.50
12329;DHT22;6230;52.390;10.256;2023-03-01T15:47:47;13.00;37.30
12329;DHT22;6230;52.390;10.256;2023-03-01T15:50:31;12.90;37.60
12329;DHT22;6230;52.390;10.256;2023-03-01T15:52:59;12.80;37.50
12329;DHT22;6230;52.390;10.256;2023-03-01T15:55:30;12.80;37.70
12329;DHT22;6230;52.390;10.256;2023-03-01T15:58:14;12.70;37.70
12329;DHT22;6230;52.390;10.256;2023-03-01T16:00:41;12.70;37.80
12329;DHT22;6230;52.390;10.256;2023-03-01T16:03:10;12.70;37.90
12329;DHT22;6230;52.390;10.256;2023-03-01T16:05:37;12.60;37.90
12329;DHT22;6230;52.390;10.256;2023-03-01T16:08:04;12.60;37.90
12329;DHT22;6230;52.390;10.256;2023-03-01T16:10:31;12.60;38.00
12329;DHT22;6230;52.390;10.256;2023-03-01T16:12:58;12.60;38.10
12329;DHT22;6230;52.390;10.256;2023-03-01T16:15:28;12.60;38.20
12329;DHT22;6230;52.390;10.256;2023-03-01T16:17:54;12.50;38.20
12329;DHT22;6230;52.390;10.256;2023-03-01T16:20:20;12.50;38.30
12329;DHT22;6230;52.390;10.256;2023-03-01T16:22:46;12.50;38.30
12329;DHT22;6230;52.390;10.256;2023-03-01T16:25:13;12.40;38.30
12329;DHT22;6230;52.390;10.256;2023-03-01T16:27:42;12.30;38.40
12329;DHT22;6230;52.390;10.256;2023-03-01T16:30:10;12.30;38.40
12329;DHT22;6230;52.390;10.256;2023-03-01T16:32:39;12.30;38.50
12329;DHT22;6230;52.390;10.256;2023-03-01T16:35:06;12.20;38.50
12329;DHT22;6230;52.390;10.256;2023-03-01T16:37:33;12.20;38.70
12329;DHT22;6230;52.390;10.256;2023-03-01T16:39:59;12.10;38.70
12329;DHT22;6230;52.390;10.256;2023-03-01T16:42:25;12.10;38.80
12329;DHT22;6230;52.390;10.256;2023-03-01T16:44:56;12.00;38.90
12329;DHT22;6230;52.390;10.256;2023-03-01T16:47:22;12.00;38.90
12329;DHT22;6230;52.390;10.256;2023-03-01T16:49:51;12.00;39.10
12329;DHT22;6230;52.390;10.256;2023-03-01T16:52:16;11.90;39.10
12329;DHT22;6230;52.390;10.256;2023-03-01T16:54:42;11.90;39.20
12329;DHT22;6230;52.390;10.256;2023-03-01T16:57:07;11.80;39.30
12329;DHT22;6230;52.390;10.256;2023-03-01T16:59:33;11.80;40.00
12329;DHT22;6230;52.390;10.256;2023-03-01T17:01:58;11.80;39.50
12329;DHT22;6230;52.390;10.256;2023-03-01T17:04:24;11.70;39.60
12329;DHT22;6230;52.390;10.256;2023-03-01T17:06:49;11.70;39.60
12329;DHT22;6230;52.390;10.256;2023-03-01T17:09:15;11.70;39.70
12329;DHT22;6230;52.390;10.256;2023-03-01T17:11:42;11.60;39.70
12329;DHT22;6230;52.390;10.256;2023-03-01T17:14:08;11.60;39.90
12329;DHT22;6230;52.390;10.256;2023-03-01T17:16:34;11.50;39.90
12329;DHT22;6230;52.390;10.256;2023-03-01T17:19:00;11.50;39.90
12329;DHT22;6230;52.390;10.256;2023-03-01T17:21:26;11.40;40.00
12329;DHT22;6230;52.390;10.256;2023-03-01T17:23:55;11.40;40.10
12329;DHT22;6230;52.390;10.256;2023-03-01T17:26:22;11.30;40.20
12329;DHT22;6230;52.390;10.256;2023-03-01T17:28:47;11.30;40.40